Time;durP1;ratioP1;P1;durP2;ratioP2;P2;SDS_P1;SDS_P2;PMS_P1;PMS_P2;Temp;Humidity;BMP_temperature;BMP_pressure;BME280_temperature;BME280_humidity;BME280_pressure;Samples;Min_cycle;Max_cycle;Signal;HPM_P1;HPM_P2
2022/02/23 00:00:05;;;;;;;;;;;;;;;14.06;60.77;101774.53;1019215;29;1723;-64
2022/02/23 00:00:56;;;;;;;;;;;;;;;14.07;60.72;101778.06;1021539;29;912;-64
2022/02/23 00:01:46;;;;;;;;;;;;;;;14.08;61.08;101780.66;1021360;29;928;-64
2022/02/23 00:02:37;;;;;;;;;;;;;;;14.08;61.30;101775.28;1021619;29;690;-64
2022/02/23 00:03:27;;;;;;;;;;;;;;;14.07;60.88;101783.41;1021510;29;805;-64
2022/02/23 00:04:17;;;;;;;;;;;;;;;14.06;60.91;101779.88;1021639;29;735;-64
2022/02/23 00:05:08;;;;;;;;;;;;;;;14.07;60.62;101783.41;1021631;29;750;-64
2022/02/23 00:05:58;;;;;;;;;;;;;;;14.08;60.77;101785.16;1022109;29;719;-65
2022/02/23 00:06:49;;;;;;;;;;;;;;;14.07;60.71;101789.66;1021650;29;682;-64
2022/02/23 00:07:39;;;;;;;;;;;;;;;14.07;60.67;101788.78;1021424;29;934;-64
2022/02/23 00:08:30;;;;;;;;;;;;;;;14.07;60.36;101788.78;1018289;28;749;-65
2022/02/23 00:09:20;;;;;;;;;;;;;;;14.06;61.08;101795.97;1017360;29;736;-64
2022/02/23 00:10:10;;;;;;;;;;;;;;;14.06;60.56;101797.78;1020940;29;738;-65
2022/02/23 00:11:01;;;;;;;;;;;;;;;14.05;60.92;101791.56;1021529;29;820;-65
2022/02/23 00:11:52;;;;;;;;;;;;;;;14.05;60.67;101796.91;1022048;29;887;-65
2022/02/23 00:12:42;;;;;;;;;;;;;;;14.06;61.18;101804.00;1021619;29;710;-65
2022/02/23 00:13:33;;;;;;;;;;;;;;;14.05;60.86;101791.56;1021561;29;757;-66
2022/02/23 00:14:24;;;;;;;;;;;;;;;14.06;60.78;101800.47;1017966;29;727;-65
2022/02/23 00:15:14;;;;;;;;;;;;;;;14.07;61.35;101804.88;1017440;29;760;-66
2022/02/23 00:16:05;;;;;;;;;;;;;;;14.05;61.04;101802.28;1020852;29;834;-66
2022/02/23 00:16:55;;;;;;;;;;;;;;;14.06;61.01;101803.13;1022095;29;722;-65
2022/02/23 00:17:46;;;;;;;;;;;;;;;14.04;60.81;101803.22;1021554;29;713;-65
2022/02/23 00:18:36;;;;;;;;;;;;;;;14.03;60.75;101801.50;1021470;29;1954;-66
2022/02/23 00:19:27;;;;;;;;;;;;;;;14.04;60.93;101805.91;1021660;29;907;-66
2022/02/23 00:20:17;;;;;;;;;;;;;;;14.04;60.65;101808.59;1021452;29;926;-66
2022/02/23 00:21:08;;;;;;;;;;;;;;;14.04;60.35;101805.91;1021999;29;751;-66
2022/02/23 00:21:58;;;;;;;;;;;;;;;14.03;60.77;101808.69;1021430;29;796;-66
2022/02/23 00:22:49;;;;;;;;;;;;;;;14.03;61.24;101803.34;1021504;29;766;-66
2022/02/23 00:23:39;;;;;;;;;;;;;;;14.03;61.02;101808.69;1021638;29;715;-64
2022/02/23 00:24:29;;;;;;;;;;;;;;;14.03;60.86;101801.50;1021438;29;812;-65
2022/02/23 00:25:21;;;;;;;;;;;;;;;14.04;61.04;101799.69;1021955;29;719;-66
2022/02/23 00:26:13;;;;;;;;;;;;;;;14.04;61.11;101810.41;1021543;29;1313;-66
2022/02/23 00:27:03;;;;;;;;;;;;;;;14.03;60.57;101809.56;1019529;29;1458;-66
2022/02/23 00:27:54;;;;;;;;;;;;;;;14.02;61.11;101805.16;1022307;29;762;-65
2022/02/23 00:28:44;;;;;;;;;;;;;;;14.02;60.81;101807.84;1022304;29;946;-66
2022/02/23 00:29:35;;;;;;;;;;;;;;;14.03;61.21;101814.91;1022392;29;745;-66
2022/02/23 00:30:25;;;;;;;;;;;;;;;14.01;60.76;101811.47;1022332;29;760;-66
2022/02/23 00:31:16;;;;;;;;;;;;;;;14.01;60.91;101811.47;1022333;29;751;-66
2022/02/23 00:32:06;;;;;;;;;;;;;;;14.01;61.33;101811.47;1022280;29;1374;-65
2022/02/23 00:32:57;;;;;;;;;;;;;;;14.01;60.62;101818.66;1022381;29;865;-63
2022/02/23 00:33:47;;;;;;;;;;;;;;;14.02;61.33;101821.22;1022307;29;682;-66
2022/02/23 00:34:38;;;;;;;;;;;;;;;14.02;60.66;101823.91;1022268;29;854;-66
2022/02/23 00:35:28;;;;;;;;;;;;;;;14.02;60.66;101818.56;1022274;29;697;-65
2022/02/23 00:36:18;;;;;;;;;;;;;;;14.02;60.66;101823.91;1022355;29;752;-66
2022/02/23 00:37:09;;;;;;;;;;;;;;;14.02;61.03;101817.69;1022334;29;782;-66
2022/02/23 00:37:59;;;;;;;;;;;;;;;14.02;61.22;101828.41;1022188;29;674;-66
2022/02/23 00:38:50;;;;;;;;;;;;;;;14.02;60.73;101823.06;1022148;29;1891;-66
2022/02/23 00:39:40;;;;;;;;;;;;;;;14.01;61.36;101827.56;1022181;29;759;-65
2022/02/23 00:40:30;;;;;;;;;;;;;;;14.01;60.75;101832.91;1022411;29;708;-66
2022/02/23 00:41:22;;;;;;;;;;;;;;;14.01;60.99;101832.91;1022134;29;849;-66
2022/02/23 00:42:12;;;;;;;;;;;;;;;14.00;60.92;101825.81;1022244;29;847;-65
2022/02/23 00:43:06;;;;;;;;;;;;;;;14.00;60.99;101828.50;1022182;29;743;-63
2022/02/23 00:43:56;;;;;;;;;;;;;;;14.01;60.68;101837.41;1022257;29;720;-65
2022/02/23 00:44:47;;;;;;;;;;;;;;;13.99;61.17;101826.78;1017678;29;663;-66
2022/02/23 00:45:37;;;;;;;;;;;;;;;13.98;60.73;101833.09;1014760;29;631;-65
2022/02/23 00:46:28;;;;;;;;;;;;;;;13.98;61.23;101824.19;1018044;29;694;-64
2022/02/23 00:47:18;;;;;;;;;;;;;;;13.99;61.55;101828.59;1022641;29;1081;-64
2022/02/23 00:48:09;;;;;;;;;;;;;;;13.99;60.64;101828.59;1022221;29;650;-65
2022/02/23 00:48:59;;;;;;;;;;;;;;;13.99;61.22;101832.13;1022342;29;688;-65
2022/02/23 00:49:49;;;;;;;;;;;;;;;13.98;60.66;101838.47;1022282;29;654;-63
2022/02/23 00:50:40;;;;;;;;;;;;;;;13.99;60.89;101833.97;1022341;29;666;-63
2022/02/23 00:51:30;;;;;;;;;;;;;;;13.98;61.43;101830.41;1022210;29;845;-63
2022/02/23 00:52:21;;;;;;;;;;;;;;;13.97;61.26;101834.09;1022251;29;727;-63
2022/02/23 00:53:11;;;;;;;;;;;;;;;13.98;60.83;101838.47;1017360;29;685;-64
2022/02/23 00:54:01;;;;;;;;;;;;;;;13.97;61.53;101836.75;1017942;29;642;-64
2022/02/23 00:54:52;;;;;;;;;;;;;;;13.98;61.07;101832.22;1018322;29;789;-63
2022/02/23 00:55:42;;;;;;;;;;;;;;;13.98;61.16;101838.47;1018228;29;796;-65
2022/02/23 00:56:33;;;;;;;;;;;;;;;13.98;60.83;101835.78;1021635;29;1837;-64
2022/02/23 00:57:23;;;;;;;;;;;;;;;13.99;60.47;101844.69;1022140;29;696;-64
2022/02/23 00:58:14;;;;;;;;;;;;;;;13.98;61.13;101838.47;1022208;29;637;-64
2022/02/23 00:59:04;;;;;;;;;;;;;;;13.98;61.33;101841.13;1022290;29;746;-63
2022/02/23 00:59:54;;;;;;;;;;;;;;;13.98;60.63;101843.81;1022116;29;874;-64
2022/02/23 01:00:45;;;;;;;;;;;;;;;13.98;61.20;101843.81;1022251;29;639;-65
2022/02/23 01:01:35;;;;;;;;;;;;;;;13.97;60.81;101842.13;1022269;29;707;-64
2022/02/23 01:02:26;;;;;;;;;;;;;;;13.96;61.11;101848.44;1022067;29;947;-64
2022/02/23 01:03:16;;;;;;;;;;;;;;;13.96;60.80;101840.41;1022119;29;730;-63
2022/02/23 01:04:06;;;;;;;;;;;;;;;13.96;60.76;101845.75;1022094;29;935;-64
2022/02/23 01:04:57;;;;;;;;;;;;;;;13.97;61.22;101842.13;1022287;29;690;-64
2022/02/23 01:05:47;;;;;;;;;;;;;;;13.96;61.31;101837.72;1022140;29;679;-64
2022/02/23 01:06:38;;;;;;;;;;;;;;;13.96;61.43;101842.22;1022165;29;693;-65
2022/02/23 01:07:28;;;;;;;;;;;;;;;13.97;61.13;101851.97;1022116;29;785;-63
2022/02/23 01:08:18;;;;;;;;;;;;;;;13.94;61.34;101846.81;1022097;29;852;-64
2022/02/23 01:09:09;;;;;;;;;;;;;;;13.95;60.46;101845.84;1022149;29;741;-64
2022/02/23 01:09:59;;;;;;;;;;;;;;;13.95;61.30;101846.72;1022082;29;793;-64
2022/02/23 01:10:50;;;;;;;;;;;;;;;13.95;60.50;101852.06;1022237;29;670;-65
2022/02/23 01:11:41;;;;;;;;;;;;;;;13.95;60.28;101854.75;1019132;28;690;-64
2022/02/23 01:12:31;;;;;;;;;;;;;;;13.95;61.21;101854.75;1019058;29;848;-64
2022/02/23 01:13:21;;;;;;;;;;;;;;;13.95;60.44;101841.34;1018964;29;791;-64
2022/02/23 01:14:12;;;;;;;;;;;;;;;13.94;60.61;101847.69;1017859;29;745;-64
2022/02/23 01:15:02;;;;;;;;;;;;;;;13.94;61.43;101850.34;1021634;29;696;-63
2022/02/23 01:15:53;;;;;;;;;;;;;;;13.95;61.39;101843.19;1022153;29;783;-64
2022/02/23 01:16:43;;;;;;;;;;;;;;;13.93;60.85;101843.28;1022062;29;838;-65
2022/02/23 01:17:34;;;;;;;;;;;;;;;13.93;60.37;101843.28;1022037;29;1769;-64
2022/02/23 01:18:24;;;;;;;;;;;;;;;13.93;60.67;101845.94;1022096;29;752;-64
2022/02/23 01:19:14;;;;;;;;;;;;;;;13.93;61.08;101856.66;1022080;29;715;-63
2022/02/23 01:20:05;;;;;;;;;;;;;;;13.93;60.39;101851.31;1022201;29;699;-64
2022/02/23 01:20:55;;;;;;;;;;;;;;;13.93;60.39;101854.00;1022075;29;809;-63
2022/02/23 01:21:46;;;;;;;;;;;;;;;13.93;61.06;101850.44;1022109;29;757;-63
2022/02/23 01:22:36;;;;;;;;;;;;;;;13.93;60.66;101856.66;1019613;29;1659;-64
2022/02/23 01:23:27;;;;;;;;;;;;;;;13.93;60.90;101856.66;1018231;29;716;-64
2022/02/23 01:24:17;;;;;;;;;;;;;;;13.94;61.26;101857.53;1018923;29;1696;-64
2022/02/23 01:25:07;;;;;;;;;;;;;;;13.94;61.19;101857.53;1017803;29;1048;-64
2022/02/23 01:25:58;;;;;;;;;;;;;;;13.92;61.18;101860.31;1016455;29;806;-64
2022/02/23 01:26:48;;;;;;;;;;;;;;;13.91;60.87;101853.22;1020157;29;844;-64
2022/02/23 01:27:39;;;;;;;;;;;;;;;13.92;61.05;101859.44;1022263;29;760;-64
2022/02/23 01:28:29;;;;;;;;;;;;;;;13.92;61.00;101862.97;1022130;29;706;-64
2022/02/23 01:29:19;;;;;;;;;;;;;;;13.92;61.22;101868.34;1021977;29;790;-64
2022/02/23 01:30:10;;;;;;;;;;;;;;;13.92;61.26;101865.66;1022162;29;844;-64
2022/02/23 01:31:00;;;;;;;;;;;;;;;13.92;61.12;101865.66;1022008;29;848;-63
2022/02/23 01:31:51;;;;;;;;;;;;;;;13.92;61.25;101865.66;1022126;29;717;-64
2022/02/23 01:32:41;;;;;;;;;;;;;;;13.93;61.22;101871.88;1022086;29;741;-64
2022/02/23 01:33:32;;;;;;;;;;;;;;;13.91;60.77;101869.31;1022130;29;844;-64
2022/02/23 01:34:22;;;;;;;;;;;;;;;13.90;61.16;101865.75;1022090;29;766;-64
2022/02/23 01:35:12;;;;;;;;;;;;;;;13.90;61.01;101868.44;1022006;29;811;-63
2022/02/23 01:36:03;;;;;;;;;;;;;;;13.90;60.54;101873.78;1022153;29;721;-63
2022/02/23 01:36:53;;;;;;;;;;;;;;;13.90;60.48;101868.44;1021349;29;686;-66
2022/02/23 01:37:44;;;;;;;;;;;;;;;13.90;60.56;101872.94;1022083;29;702;-65
2022/02/23 01:38:34;;;;;;;;;;;;;;;13.89;60.42;101871.22;1021965;29;1899;-64
2022/02/23 01:39:25;;;;;;;;;;;;;;;13.89;61.17;101873.88;1021988;29;783;-65
2022/02/23 01:40:15;;;;;;;;;;;;;;;13.89;61.10;101879.25;1022082;29;761;-65
2022/02/23 01:41:06;;;;;;;;;;;;;;;13.89;61.06;101888.16;1021939;29;1416;-66
2022/02/23 01:41:56;;;;;;;;;;;;;;;13.89;60.50;101876.56;1021997;29;757;-65
2022/02/23 01:42:47;;;;;;;;;;;;;;;13.88;61.08;101874.84;1022577;29;655;-65
2022/02/23 01:43:37;;;;;;;;;;;;;;;13.89;60.64;101881.94;1022010;29;870;-65
2022/02/23 01:44:28;;;;;;;;;;;;;;;13.88;60.64;101881.06;1022102;29;1056;-64
2022/02/23 01:45:18;;;;;;;;;;;;;;;13.88;60.36;101882.88;1022088;29;774;-65
2022/02/23 01:46:09;;;;;;;;;;;;;;;13.87;61.23;101894.56;1021979;29;716;-65
2022/02/23 01:46:59;;;;;;;;;;;;;;;13.87;60.97;101883.84;1022484;29;773;-65
2022/02/23 01:47:50;;;;;;;;;;;;;;;13.87;61.17;101878.47;1021943;29;930;-64
2022/02/23 01:48:40;;;;;;;;;;;;;;;13.88;60.87;101893.59;1022050;29;718;-65
2022/02/23 01:49:31;;;;;;;;;;;;;;;13.86;60.58;101890.16;1022051;29;675;-65
2022/02/23 01:50:21;;;;;;;;;;;;;;;13.86;60.40;101882.97;1022063;29;820;-65
2022/02/23 01:51:11;;;;;;;;;;;;;;;13.86;60.51;101893.69;1021866;29;681;-65
2022/02/23 01:52:02;;;;;;;;;;;;;;;13.86;60.82;101890.16;1021934;29;917;-65
2022/02/23 01:52:52;;;;;;;;;;;;;;;13.85;60.75;101889.28;1021963;29;689;-65
2022/02/23 01:53:43;;;;;;;;;;;;;;;13.86;60.64;101888.34;1021914;29;695;-65
2022/02/23 01:54:33;;;;;;;;;;;;;;;13.85;60.39;101891.09;1021974;29;855;-64
2022/02/23 01:55:24;;;;;;;;;;;;;;;13.86;60.69;101891.00;1022027;29;767;-64
2022/02/23 01:56:14;;;;;;;;;;;;;;;13.86;60.30;101896.38;1021443;29;1454;-64
2022/02/23 01:57:04;;;;;;;;;;;;;;;13.85;60.88;101893.78;1022051;29;825;-65
2022/02/23 01:57:55;;;;;;;;;;;;;;;13.85;60.76;101901.81;1021995;29;654;-64
2022/02/23 01:58:45;;;;;;;;;;;;;;;13.84;61.04;101900.09;1021402;29;1907;-65
2022/02/23 01:59:36;;;;;;;;;;;;;;;13.84;61.03;101900.09;1021986;29;713;-64
2022/02/23 02:00:26;;;;;;;;;;;;;;;13.85;61.04;101896.47;1021951;29;822;-64
2022/02/23 02:01:17;;;;;;;;;;;;;;;13.84;60.82;101894.75;1021962;29;717;-64
2022/02/23 02:02:07;;;;;;;;;;;;;;;13.84;60.92;101897.41;1021871;29;1041;-64
2022/02/23 02:02:58;;;;;;;;;;;;;;;13.84;60.89;101902.78;1021988;29;729;-64
2022/02/23 02:03:48;;;;;;;;;;;;;;;13.83;60.49;101901.06;1021961;29;753;-63
2022/02/23 02:04:38;;;;;;;;;;;;;;;13.83;60.81;101901.91;1021920;29;794;-64
2022/02/23 02:05:29;;;;;;;;;;;;;;;13.83;60.90;101898.38;1021981;29;648;-64
2022/02/23 02:06:19;;;;;;;;;;;;;;;13.84;60.64;101905.44;1021992;29;784;-64
2022/02/23 02:07:10;;;;;;;;;;;;;;;13.82;60.49;101900.19;1018739;28;810;-64
2022/02/23 02:08:00;;;;;;;;;;;;;;;13.83;60.75;101906.41;1017899;29;767;-64
2022/02/23 02:08:50;;;;;;;;;;;;;;;13.83;61.11;101903.72;1021911;29;848;-64
2022/02/23 02:09:41;;;;;;;;;;;;;;;13.82;61.36;101897.50;1021893;29;785;-64
2022/02/23 02:10:31;;;;;;;;;;;;;;;13.82;61.12;101910.91;1021962;29;766;-65
2022/02/23 02:11:22;;;;;;;;;;;;;;;13.83;60.45;101909.94;1020740;29;1536;-64
2022/02/23 02:12:12;;;;;;;;;;;;;;;13.82;60.51;101916.25;1017944;29;701;-64
2022/02/23 02:13:03;;;;;;;;;;;;;;;13.82;60.80;101912.72;1017899;29;1034;-65
2022/02/23 02:13:53;;;;;;;;;;;;;;;13.81;61.15;101909.19;1014744;29;651;-64
2022/02/23 02:14:43;;;;;;;;;;;;;;;13.81;61.13;101916.34;1013788;29;898;-64
2022/02/23 02:15:34;;;;;;;;;;;;;;;13.80;60.49;101914.63;1017610;29;723;-64
2022/02/23 02:16:24;;;;;;;;;;;;;;;13.81;60.71;101919.03;1018017;29;858;-64
2022/02/23 02:17:15;;;;;;;;;;;;;;;13.81;60.70;101921.72;1017969;29;974;-64
2022/02/23 02:18:06;;;;;;;;;;;;;;;13.80;61.46;101920.00;1015023;29;830;-64
2022/02/23 02:18:58;;;;;;;;;;;;;;;13.80;61.27;101925.34;1014313;29;1902;-64
2022/02/23 02:19:48;;;;;;;;;;;;;;;13.79;60.61;101921.81;1018603;29;655;-64
2022/02/23 02:20:39;;;;;;;;;;;;;;;13.79;60.91;101923.66;1018047;29;905;-64
2022/02/23 02:21:29;;;;;;;;;;;;;;;13.81;61.08;101924.41;1017856;29;788;-65
2022/02/23 02:22:20;;;;;;;;;;;;;;;13.82;60.58;101931.47;1018038;29;787;-64
2022/02/23 02:23:10;;;;;;;;;;;;;;;13.81;61.16;101924.41;1018518;29;729;-64
2022/02/23 02:24:01;;;;;;;;;;;;;;;13.80;60.60;101936.06;1017968;29;699;-64
2022/02/23 02:24:51;;;;;;;;;;;;;;;13.80;60.58;101936.06;1014945;29;809;-64
2022/02/23 02:25:42;;;;;;;;;;;;;;;13.78;60.77;101932.66;1013737;29;874;-61
2022/02/23 02:26:32;;;;;;;;;;;;;;;13.77;61.11;101934.47;1017414;29;749;-65
2022/02/23 02:27:23;;;;;;;;;;;;;;;13.76;61.08;101931.88;1014738;29;838;-63
2022/02/23 02:28:13;;;;;;;;;;;;;;;13.77;61.27;101925.56;1014229;29;776;-65
2022/02/23 02:29:03;;;;;;;;;;;;;;;13.77;60.89;101931.78;1017408;29;759;-64
2022/02/23 02:29:54;;;;;;;;;;;;;;;13.78;61.19;101940.69;1017925;29;717;-64
2022/02/23 02:30:44;;;;;;;;;;;;;;;13.77;61.37;101931.78;1017836;29;780;-64
2022/02/23 02:31:35;;;;;;;;;;;;;;;13.78;61.43;101940.69;1017860;29;782;-64
2022/02/23 02:32:26;;;;;;;;;;;;;;;13.78;60.96;101938.00;1017883;29;1137;-64
2022/02/23 02:33:16;;;;;;;;;;;;;;;13.78;60.66;101935.31;1018504;29;795;-64
2022/02/23 02:34:07;;;;;;;;;;;;;;;13.78;60.73;101938.88;1017939;29;815;-65
2022/02/23 02:34:57;;;;;;;;;;;;;;;13.77;61.55;101936.28;1017867;29;736;-64
2022/02/23 02:35:48;;;;;;;;;;;;;;;13.77;60.66;101936.28;1017751;29;843;-64
2022/02/23 02:36:38;;;;;;;;;;;;;;;13.77;60.63;101937.13;1014709;29;674;-64
2022/02/23 02:37:28;;;;;;;;;;;;;;;13.76;61.29;101934.56;1013765;29;702;-65
2022/02/23 02:38:19;;;;;;;;;;;;;;;13.77;61.54;101930.91;1017397;29;698;-64
2022/02/23 02:39:09;;;;;;;;;;;;;;;13.76;60.89;101930.06;1017843;29;714;-64
2022/02/23 02:40:00;;;;;;;;;;;;;;;13.76;61.48;101939.91;1018397;29;803;-64
2022/02/23 02:40:50;;;;;;;;;;;;;;;13.76;61.25;101931.88;1018522;29;661;-65
2022/02/23 02:41:40;;;;;;;;;;;;;;;13.75;60.91;101932.81;1018563;29;761;-65
2022/02/23 02:42:31;;;;;;;;;;;;;;;13.75;61.51;101935.50;1018456;29;763;-65
2022/02/23 02:43:21;;;;;;;;;;;;;;;13.75;61.31;101936.38;1018354;29;777;-64
2022/02/23 02:44:12;;;;;;;;;;;;;;;13.76;61.21;101938.09;1018402;29;778;-64
2022/02/23 02:45:02;;;;;;;;;;;;;;;13.75;60.84;101925.66;1018518;29;950;-63
2022/02/23 02:45:53;;;;;;;;;;;;;;;13.77;61.21;101933.59;1018485;29;982;-63
2022/02/23 02:46:43;;;;;;;;;;;;;;;13.77;61.20;101939.81;1013732;29;738;-63
2022/02/23 02:47:33;;;;;;;;;;;;;;;13.75;61.35;101936.38;1014694;29;1063;-63
2022/02/23 02:48:24;;;;;;;;;;;;;;;13.76;61.28;101939.91;1018202;29;827;-63
2022/02/23 02:49:14;;;;;;;;;;;;;;;13.75;60.85;101939.03;1018450;29;725;-64
2022/02/23 02:50:05;;;;;;;;;;;;;;;13.75;60.71;101938.19;1018352;29;755;-64
2022/02/23 02:50:55;;;;;;;;;;;;;;;13.74;60.85;101937.31;1018419;29;725;-64
2022/02/23 02:51:47;;;;;;;;;;;;;;;13.72;61.46;101944.59;1014701;29;926;-64
2022/02/23 02:52:37;;;;;;;;;;;;;;;13.73;60.99;101940.09;1013633;29;925;-64
2022/02/23 02:53:28;;;;;;;;;;;;;;;13.73;61.50;101945.44;1018358;29;809;-65
2022/02/23 02:54:18;;;;;;;;;;;;;;;13.74;61.58;101947.19;1018310;29;866;-67
2022/02/23 02:55:08;;;;;;;;;;;;;;;13.74;61.51;101947.19;1018383;29;804;-66
2022/02/23 02:55:59;;;;;;;;;;;;;;;13.73;61.29;101940.97;1014499;29;1210;-66
2022/02/23 02:56:49;;;;;;;;;;;;;;;13.74;60.93;101949.84;1014745;29;871;-67
2022/02/23 02:57:40;;;;;;;;;;;;;;;13.75;60.85;101948.91;1012586;29;782;-66
2022/02/23 02:58:30;;;;;;;;;;;;;;;13.74;61.35;101947.19;1018389;29;1960;-66
2022/02/23 02:59:21;;;;;;;;;;;;;;;13.72;61.21;101949.94;1018445;29;708;-65
2022/02/23 03:00:11;;;;;;;;;;;;;;;13.73;61.52;101956.16;1018650;29;1519;-66
2022/02/23 03:01:01;;;;;;;;;;;;;;;13.72;61.32;101949.09;1017746;29;870;-66
2022/02/23 03:01:52;;;;;;;;;;;;;;;13.72;61.07;101949.94;1017804;29;807;-66
2022/02/23 03:02:42;;;;;;;;;;;;;;;13.72;61.64;101954.44;1018262;29;1600;-66
2022/02/23 03:03:33;;;;;;;;;;;;;;;13.73;60.81;101957.03;1013643;29;675;-66
2022/02/23 03:04:23;;;;;;;;;;;;;;;13.73;61.57;101958.84;1013682;29;709;-66
2022/02/23 03:05:13;;;;;;;;;;;;;;;13.73;60.73;101959.72;1016735;29;806;-66
2022/02/23 03:06:04;;;;;;;;;;;;;;;13.73;60.86;101958.84;1017350;29;822;-66
2022/02/23 03:06:54;;;;;;;;;;;;;;;13.73;61.66;101962.38;1017209;29;887;-66
2022/02/23 03:07:45;;;;;;;;;;;;;;;13.73;61.01;101956.16;1017511;29;671;-66
2022/02/23 03:08:35;;;;;;;;;;;;;;;13.72;61.54;101955.31;1017194;29;773;-66
2022/02/23 03:09:25;;;;;;;;;;;;;;;13.72;61.70;101962.47;1017118;29;782;-66
2022/02/23 03:10:16;;;;;;;;;;;;;;;13.72;61.28;101960.66;1017340;29;779;-66
2022/02/23 03:11:06;;;;;;;;;;;;;;;13.72;60.89;101957.13;1017140;29;701;-67
2022/02/23 03:11:57;;;;;;;;;;;;;;;13.72;61.03;101965.16;1017353;29;754;-66
2022/02/23 03:12:47;;;;;;;;;;;;;;;13.70;61.53;101965.25;1017090;29;651;-66
2022/02/23 03:13:38;;;;;;;;;;;;;;;13.71;60.93;101958.06;1017167;29;823;-66
2022/02/23 03:14:28;;;;;;;;;;;;;;;13.70;60.91;101964.38;1017349;29;646;-66
2022/02/23 03:15:18;;;;;;;;;;;;;;;13.70;61.43;101965.25;1016828;29;869;-67
2022/02/23 03:16:09;;;;;;;;;;;;;;;13.72;61.59;101965.16;1017441;29;671;-66
2022/02/23 03:16:59;;;;;;;;;;;;;;;13.71;61.45;101963.44;1017895;29;745;-66
2022/02/23 03:17:50;;;;;;;;;;;;;;;13.70;60.73;101962.56;1017374;29;765;-66
2022/02/23 03:18:40;;;;;;;;;;;;;;;13.69;61.68;101959.97;1017071;29;1891;-66
2022/02/23 03:19:31;;;;;;;;;;;;;;;13.69;60.83;101965.34;1017150;29;812;-66
2022/02/23 03:20:21;;;;;;;;;;;;;;;13.68;60.91;101969.81;1017835;29;786;-66
2022/02/23 03:21:11;;;;;;;;;;;;;;;13.69;60.94;101965.34;1017145;29;719;-66
2022/02/23 03:22:02;;;;;;;;;;;;;;;13.68;61.59;101968.97;1017352;29;776;-66
2022/02/23 03:22:52;;;;;;;;;;;;;;;13.66;61.16;101971.72;1017227;29;748;-66
2022/02/23 03:23:43;;;;;;;;;;;;;;;13.67;61.52;101975.28;1016783;29;752;-66
2022/02/23 03:24:33;;;;;;;;;;;;;;;13.67;61.47;101972.59;1017430;29;695;-66
2022/02/23 03:25:23;;;;;;;;;;;;;;;13.66;61.66;101977.09;1017319;29;717;-66
2022/02/23 03:26:14;;;;;;;;;;;;;;;13.67;60.91;101978.81;1017051;29;759;-65
2022/02/23 03:27:04;;;;;;;;;;;;;;;13.67;61.18;101981.50;1013032;29;758;-66
2022/02/23 03:27:55;;;;;;;;;;;;;;;13.66;61.46;101977.09;1012910;29;885;-66
2022/02/23 03:28:45;;;;;;;;;;;;;;;13.67;61.59;101977.94;1016552;29;647;-66
2022/02/23 03:29:36;;;;;;;;;;;;;;;13.66;60.92;101971.72;1017760;29;718;-66
2022/02/23 03:30:26;;;;;;;;;;;;;;;13.67;61.23;101978.81;1017754;29;848;-65
2022/02/23 03:31:16;;;;;;;;;;;;;;;13.67;61.14;101976.13;1017798;29;779;-65
2022/02/23 03:32:07;;;;;;;;;;;;;;;13.67;61.21;101980.63;1017626;29;956;-65
2022/02/23 03:32:57;;;;;;;;;;;;;;;13.65;61.42;101986.06;1017682;29;682;-65
2022/02/23 03:33:48;;;;;;;;;;;;;;;13.65;61.63;101987.88;1017759;29;692;-65
2022/02/23 03:34:38;;;;;;;;;;;;;;;13.66;61.49;101984.25;1017770;29;643;-65
2022/02/23 03:35:28;;;;;;;;;;;;;;;13.65;60.79;101987.88;1017783;29;667;-65
2022/02/23 03:36:19;;;;;;;;;;;;;;;13.66;61.52;101981.59;1017615;29;753;-65
2022/02/23 03:37:09;;;;;;;;;;;;;;;13.64;61.50;101984.34;1017759;29;771;-65
2022/02/23 03:38:00;;;;;;;;;;;;;;;13.64;60.83;101994.19;1017720;29;734;-65
2022/02/23 03:38:50;;;;;;;;;;;;;;;13.65;60.99;101987.88;1017659;29;1894;-67
2022/02/23 03:39:40;;;;;;;;;;;;;;;13.65;61.11;101995.94;1019015;29;1777;-68
2022/02/23 03:40:31;;;;;;;;;;;;;;;13.66;61.16;101997.66;1021502;29;716;-68
2022/02/23 03:41:22;;;;;;;;;;;;;;;13.65;61.62;101995.94;1022188;29;733;-67
2022/02/23 03:42:12;;;;;;;;;;;;;;;13.64;61.52;101996.88;1022295;29;771;-66
2022/02/23 03:43:03;;;;;;;;;;;;;;;13.64;61.54;101995.06;1021518;29;706;-66
2022/02/23 03:43:53;;;;;;;;;;;;;;;13.65;61.66;101995.94;1021612;29;656;-66
2022/02/23 03:44:44;;;;;;;;;;;;;;;13.64;60.89;101996.88;1021669;29;818;-65
2022/02/23 03:45:34;;;;;;;;;;;;;;;13.63;61.67;101998.69;1021661;29;779;-64
2022/02/23 03:46:25;;;;;;;;;;;;;;;13.63;60.90;102004.06;1021613;29;759;-66
2022/02/23 03:47:15;;;;;;;;;;;;;;;13.63;60.82;102001.38;1021523;29;1083;-66
2022/02/23 03:48:05;;;;;;;;;;;;;;;13.62;61.46;101996.97;1021602;29;807;-67
2022/02/23 03:48:56;;;;;;;;;;;;;;;13.63;61.66;101992.47;1021559;29;876;-67
2022/02/23 03:49:46;;;;;;;;;;;;;;;13.64;60.99;101999.56;1021640;29;696;-67
2022/02/23 03:50:37;;;;;;;;;;;;;;;13.63;61.34;102003.19;1018480;28;712;-66
2022/02/23 03:51:27;;;;;;;;;;;;;;;13.63;61.37;102003.19;1017499;29;881;-68
2022/02/23 03:52:17;;;;;;;;;;;;;;;13.63;61.69;102004.06;1021019;29;778;-66
2022/02/23 03:53:08;;;;;;;;;;;;;;;13.62;61.51;102001.47;1021525;29;936;-66
2022/02/23 03:53:58;;;;;;;;;;;;;;;13.63;61.70;101997.84;1021448;29;695;-64
2022/02/23 03:54:49;;;;;;;;;;;;;;;13.61;61.29;101999.75;1018978;29;1857;-64
2022/02/23 03:55:41;;;;;;;;;;;;;;;13.60;61.08;101998.91;1017734;29;651;-64
2022/02/23 03:56:38;;;;;;;;;;;;;;;13.61;61.10;101999.75;1018183;29;717;-64
2022/02/23 03:57:28;;;;;;;;;;;;;;;13.60;61.14;102000.72;1017585;29;880;-64
2022/02/23 03:58:19;;;;;;;;;;;;;;;13.60;61.62;102006.06;1018662;29;731;-63
2022/02/23 03:59:09;;;;;;;;;;;;;;;13.60;61.63;102008.75;1017618;29;945;-63
2022/02/23 03:59:59;;;;;;;;;;;;;;;13.61;61.40;102005.13;1017121;29;729;-63
2022/02/23 04:00:50;;;;;;;;;;;;;;;13.60;61.59;102006.06;1017057;29;782;-64
2022/02/23 04:01:40;;;;;;;;;;;;;;;13.60;60.91;102003.41;1017661;29;690;-62
2022/02/23 04:02:31;;;;;;;;;;;;;;;13.60;61.51;102006.94;1016961;29;960;-62
2022/02/23 04:03:21;;;;;;;;;;;;;;;13.59;61.64;102007.88;1017583;29;817;-63
2022/02/23 04:04:12;;;;;;;;;;;;;;;13.58;61.61;102006.16;1017104;29;764;-63
2022/02/23 04:05:02;;;;;;;;;;;;;;;13.58;61.44;102011.53;1017232;29;714;-62
2022/02/23 04:05:52;;;;;;;;;;;;;;;13.60;61.02;102009.63;1017047;29;793;-64
2022/02/23 04:06:43;;;;;;;;;;;;;;;13.61;61.66;102010.47;1017148;29;722;-63
2022/02/23 04:07:33;;;;;;;;;;;;;;;13.61;61.62;102007.81;1017456;29;905;-62
2022/02/23 04:08:24;;;;;;;;;;;;;;;13.60;61.89;102012.28;1017063;29;741;-64
2022/02/23 04:09:14;;;;;;;;;;;;;;;13.60;61.47;102008.75;1017235;29;776;-62
2022/02/23 04:10:04;;;;;;;;;;;;;;;13.59;61.74;102007.03;1017050;29;829;-63
2022/02/23 04:10:55;;;;;;;;;;;;;;;13.59;61.82;102009.69;1017141;29;662;-63
2022/02/23 04:11:45;;;;;;;;;;;;;;;13.59;61.71;102004.34;1017474;29;922;-63
2022/02/23 04:12:36;;;;;;;;;;;;;;;13.59;61.79;102007.03;1017148;29;753;-64
2022/02/23 04:13:26;;;;;;;;;;;;;;;13.57;61.11;102009.78;1017476;29;945;-63
2022/02/23 04:14:17;;;;;;;;;;;;;;;13.57;61.32;102006.25;1017108;29;784;-65
2022/02/23 04:15:07;;;;;;;;;;;;;;;13.58;61.43;102005.28;1017170;29;824;-63
2022/02/23 04:15:57;;;;;;;;;;;;;;;13.58;60.91;102003.47;1017000;29;798;-63
2022/02/23 04:16:49;;;;;;;;;;;;;;;13.58;61.13;102000.81;1017083;29;725;-63
2022/02/23 04:17:39;;;;;;;;;;;;;;;13.59;60.92;102007.03;1016514;29;674;-63
2022/02/23 04:18:30;;;;;;;;;;;;;;;13.60;60.95;102000.72;1017096;29;697;-63
2022/02/23 04:19:21;;;;;;;;;;;;;;;13.59;61.88;102001.66;1017072;29;742;-63
2022/02/23 04:20:12;;;;;;;;;;;;;;;13.58;60.87;102005.28;1017513;29;846;-63
2022/02/23 04:21:04;;;;;;;;;;;;;;;13.57;61.45;102008.94;1012771;29;717;-64
2022/02/23 04:21:54;;;;;;;;;;;;;;;13.56;61.70;102013.41;1012883;29;722;-63
2022/02/23 04:22:45;;;;;;;;;;;;;;;13.54;61.94;102005.47;1017293;29;1625;-63
2022/02/23 04:23:35;;;;;;;;;;;;;;;13.54;61.41;102010.81;1021506;29;773;-63
2022/02/23 04:24:26;;;;;;;;;;;;;;;13.54;61.28;102010.81;1021387;29;794;-63
2022/02/23 04:25:17;;;;;;;;;;;;;;;13.54;61.50;102010.81;1018141;29;729;-63